sensor_id;sensor_type;location;lat;lon;timestamp;P1;durP1;ratioP1;P2;durP2;ratioP2
20423;SDS011;10371;49.042;8.002;2023-02-21T00:00:34;6.67;;;4.73;;
20423;SDS011;10371;49.042;8.002;2023-02-21T00:01:52;7.03;;;5.23;;
20423;SDS011;10371;49.042;8.002;2023-02-21T00:03:11;8.03;;;5.97;;
20423;SDS011;10371;49.042;8.002;2023-02-21T00:04:30;6.87;;;5.07;;
20423;SDS011;10371;49.042;8.002;2023-02-21T00:05:48;7.00;;;5.07;;
20423;SDS011;10371;49.042;8.002;2023-02-21T00:07:07;6.87;;;5.17;;
20423;SDS011;10371;49.042;8.002;2023-02-21T00:08:26;8.10;;;4.80;;
20423;SDS011;10371;49.042;8.002;2023-02-21T00:09:44;8.57;;;5.50;;
20423;SDS011;10371;49.042;8.002;2023-02-21T00:11:03;7.00;;;5.17;;
20423;SDS011;10371;49.042;8.002;2023-02-21T00:12:22;7.77;;;5.47;;
20423;SDS011;10371;49.042;8.002;2023-02-21T00:13:40;7.17;;;5.43;;
20423;SDS011;10371;49.042;8.002;2023-02-21T00:14:59;8.27;;;5.47;;
20423;SDS011;10371;49.042;8.002;2023-02-21T00:16:18;6.17;;;4.90;;
20423;SDS011;10371;49.042;8.002;2023-02-21T00:17:37;7.77;;;5.10;;
20423;SDS011;10371;49.042;8.002;2023-02-21T00:18:55;7.03;;;5.33;;
20423;SDS011;10371;49.042;8.002;2023-02-21T00:20:14;5.30;;;4.70;;
20423;SDS011;10371;49.042;8.002;2023-02-21T00:21:33;6.73;;;5.00;;
20423;SDS011;10371;49.042;8.002;2023-02-21T00:22:52;7.20;;;4.53;;
20423;SDS011;10371;49.042;8.002;2023-02-21T00:24:12;7.17;;;4.83;;
20423;SDS011;10371;49.042;8.002;2023-02-21T00:25:35;5.93;;;4.60;;
20423;SDS011;10371;49.042;8.002;2023-02-21T00:26:54;7.40;;;5.00;;
20423;SDS011;10371;49.042;8.002;2023-02-21T00:28:12;8.53;;;5.30;;
20423;SDS011;10371;49.042;8.002;2023-02-21T00:29:31;7.57;;;5.03;;
20423;SDS011;10371;49.042;8.002;2023-02-21T00:30:50;6.80;;;5.40;;
20423;SDS011;10371;49.042;8.002;2023-02-21T00:32:09;6.33;;;5.27;;
20423;SDS011;10371;49.042;8.002;2023-02-21T00:33:27;7.50;;;5.20;;
20423;SDS011;10371;49.042;8.002;2023-02-21T00:34:46;6.67;;;5.37;;
20423;SDS011;10371;49.042;8.002;2023-02-21T00:36:05;6.43;;;5.00;;
20423;SDS011;10371;49.042;8.002;2023-02-21T00:37:24;7.90;;;5.20;;
20423;SDS011;10371;49.042;8.002;2023-02-21T00:38:43;5.93;;;5.03;;
20423;SDS011;10371;49.042;8.002;2023-02-21T00:40:02;10.60;;;5.87;;
20423;SDS011;10371;49.042;8.002;2023-02-21T00:41:21;7.13;;;5.17;;
20423;SDS011;10371;49.042;8.002;2023-02-21T00:42:40;5.93;;;5.33;;
20423;SDS011;10371;49.042;8.002;2023-02-21T00:43:59;5.63;;;4.93;;
20423;SDS011;10371;49.042;8.002;2023-02-21T00:45:17;6.10;;;4.70;;
20423;SDS011;10371;49.042;8.002;2023-02-21T00:46:36;7.67;;;5.20;;
20423;SDS011;10371;49.042;8.002;2023-02-21T00:47:55;7.07;;;4.87;;
20423;SDS011;10371;49.042;8.002;2023-02-21T00:49:14;9.13;;;5.10;;
20423;SDS011;10371;49.042;8.002;2023-02-21T00:50:33;7.00;;;4.53;;
20423;SDS011;10371;49.042;8.002;2023-02-21T00:51:52;7.17;;;5.07;;
20423;SDS011;10371;49.042;8.002;2023-02-21T00:53:11;8.10;;;4.93;;
20423;SDS011;10371;49.042;8.002;2023-02-21T00:54:30;7.73;;;5.27;;
20423;SDS011;10371;49.042;8.002;2023-02-21T00:55:49;5.73;;;4.70;;
20423;SDS011;10371;49.042;8.002;2023-02-21T00:57:08;6.07;;;5.17;;
20423;SDS011;10371;49.042;8.002;2023-02-21T00:58:27;5.43;;;4.53;;
20423;SDS011;10371;49.042;8.002;2023-02-21T00:59:45;6.30;;;4.90;;
20423;SDS011;10371;49.042;8.002;2023-02-21T01:01:04;6.93;;;5.07;;
20423;SDS011;10371;49.042;8.002;2023-02-21T01:02:23;8.87;;;4.83;;
20423;SDS011;10371;49.042;8.002;2023-02-21T01:03:41;6.13;;;4.77;;
20423;SDS011;10371;49.042;8.002;2023-02-21T01:05:01;6.67;;;4.50;;
20423;SDS011;10371;49.042;8.002;2023-02-21T01:06:19;5.10;;;4.47;;
20423;SDS011;10371;49.042;8.002;2023-02-21T01:07:38;7.77;;;4.87;;
20423;SDS011;10371;49.042;8.002;2023-02-21T01:08:57;7.33;;;5.07;;
20423;SDS011;10371;49.042;8.002;2023-02-21T01:10:16;5.23;;;4.30;;
20423;SDS011;10371;49.042;8.002;2023-02-21T01:11:35;5.73;;;4.53;;
20423;SDS011;10371;49.042;8.002;2023-02-21T01:12:53;6.73;;;4.70;;
20423;SDS011;10371;49.042;8.002;2023-02-21T01:14:12;7.70;;;4.53;;
20423;SDS011;10371;49.042;8.002;2023-02-21T01:15:32;6.53;;;4.57;;
20423;SDS011;10371;49.042;8.002;2023-02-21T01:16:50;6.20;;;4.90;;
20423;SDS011;10371;49.042;8.002;2023-02-21T01:18:09;6.43;;;4.50;;
20423;SDS011;10371;49.042;8.002;2023-02-21T01:19:28;5.97;;;4.77;;
20423;SDS011;10371;49.042;8.002;2023-02-21T01:20:47;6.47;;;4.53;;
20423;SDS011;10371;49.042;8.002;2023-02-21T01:22:06;7.47;;;4.93;;
20423;SDS011;10371;49.042;8.002;2023-02-21T01:23:24;8.30;;;5.00;;
20423;SDS011;10371;49.042;8.002;2023-02-21T01:24:43;6.73;;;5.00;;
20423;SDS011;10371;49.042;8.002;2023-02-21T01:26:02;5.83;;;5.13;;
20423;SDS011;10371;49.042;8.002;2023-02-21T01:27:20;10.10;;;5.00;;
20423;SDS011;10371;49.042;8.002;2023-02-21T01:28:39;5.47;;;4.53;;
20423;SDS011;10371;49.042;8.002;2023-02-21T01:29:58;8.27;;;5.20;;
20423;SDS011;10371;49.042;8.002;2023-02-21T01:31:17;7.37;;;5.13;;
20423;SDS011;10371;49.042;8.002;2023-02-21T01:32:36;7.00;;;4.47;;
20423;SDS011;10371;49.042;8.002;2023-02-21T01:33:55;7.40;;;5.00;;
20423;SDS011;10371;49.042;8.002;2023-02-21T01:35:14;6.07;;;4.60;;
20423;SDS011;10371;49.042;8.002;2023-02-21T01:36:33;8.63;;;5.40;;
20423;SDS011;10371;49.042;8.002;2023-02-21T01:37:51;6.63;;;4.70;;
20423;SDS011;10371;49.042;8.002;2023-02-21T01:39:10;6.83;;;5.17;;
20423;SDS011;10371;49.042;8.002;2023-02-21T01:40:29;7.60;;;5.20;;
20423;SDS011;10371;49.042;8.002;2023-02-21T01:41:48;5.17;;;4.67;;
20423;SDS011;10371;49.042;8.002;2023-02-21T01:43:14;6.83;;;4.87;;
20423;SDS011;10371;49.042;8.002;2023-02-21T01:45:54;6.50;;;5.30;;
20423;SDS011;10371;49.042;8.002;2023-02-21T01:47:13;8.87;;;5.17;;
20423;SDS011;10371;49.042;8.002;2023-02-21T01:48:32;5.53;;;4.77;;
20423;SDS011;10371;49.042;8.002;2023-02-21T01:49:52;6.23;;;4.77;;
20423;SDS011;10371;49.042;8.002;2023-02-21T01:51:11;5.40;;;4.50;;
20423;SDS011;10371;49.042;8.002;2023-02-21T01:52:34;7.80;;;5.43;;
20423;SDS011;10371;49.042;8.002;2023-02-21T01:53:52;7.93;;;4.97;;
20423;SDS011;10371;49.042;8.002;2023-02-21T01:55:13;7.27;;;5.20;;
20423;SDS011;10371;49.042;8.002;2023-02-21T01:56:32;8.23;;;5.50;;
20423;SDS011;10371;49.042;8.002;2023-02-21T01:57:52;5.73;;;5.13;;
20423;SDS011;10371;49.042;8.002;2023-02-21T01:59:12;6.27;;;5.00;;
20423;SDS011;10371;49.042;8.002;2023-02-21T02:00:33;7.97;;;4.80;;
20423;SDS011;10371;49.042;8.002;2023-02-21T02:01:57;7.37;;;5.07;;
20423;SDS011;10371;49.042;8.002;2023-02-21T02:03:21;7.80;;;5.27;;
20423;SDS011;10371;49.042;8.002;2023-02-21T02:04:40;9.10;;;5.87;;
20423;SDS011;10371;49.042;8.002;2023-02-21T02:06:01;8.53;;;5.60;;
20423;SDS011;10371;49.042;8.002;2023-02-21T02:07:24;9.23;;;5.27;;
20423;SDS011;10371;49.042;8.002;2023-02-21T02:08:42;6.87;;;5.20;;
20423;SDS011;10371;49.042;8.002;2023-02-21T02:10:02;6.23;;;5.17;;
20423;SDS011;10371;49.042;8.002;2023-02-21T02:15:43;9.20;;;5.03;;
20423;SDS011;10371;49.042;8.002;2023-02-21T02:18:37;7.93;;;5.30;;
20423;SDS011;10371;49.042;8.002;2023-02-21T02:20:10;6.80;;;5.20;;
20423;SDS011;10371;49.042;8.002;2023-02-21T02:26:12;6.13;;;5.10;;
20423;SDS011;10371;49.042;8.002;2023-02-21T02:35:51;6.57;;;5.17;;
20423;SDS011;10371;49.042;8.002;2023-02-21T02:39:28;6.90;;;5.43;;
20423;SDS011;10371;49.042;8.002;2023-02-21T02:41:09;7.80;;;6.33;;
20423;SDS011;10371;49.042;8.002;2023-02-21T02:43:48;6.73;;;5.53;;
20423;SDS011;10371;49.042;8.002;2023-02-21T02:45:02;6.73;;;5.20;;
20423;SDS011;10371;49.042;8.002;2023-02-21T02:47:19;6.20;;;5.40;;
20423;SDS011;10371;49.042;8.002;2023-02-21T02:49:28;6.20;;;5.60;;
20423;SDS011;10371;49.042;8.002;2023-02-21T02:50:32;6.53;;;5.40;;
20423;SDS011;10371;49.042;8.002;2023-02-21T02:51:33;6.43;;;5.50;;
20423;SDS011;10371;49.042;8.002;2023-02-21T02:52:34;6.10;;;5.33;;
20423;SDS011;10371;49.042;8.002;2023-02-21T02:53:35;6.60;;;5.30;;
20423;SDS011;10371;49.042;8.002;2023-02-21T02:54:36;7.33;;;5.33;;
20423;SDS011;10371;49.042;8.002;2023-02-21T02:55:38;7.00;;;5.60;;
20423;SDS011;10371;49.042;8.002;2023-02-21T02:56:47;7.30;;;5.60;;
20423;SDS011;10371;49.042;8.002;2023-02-21T02:57:48;7.60;;;5.67;;
20423;SDS011;10371;49.042;8.002;2023-02-21T02:58:53;6.90;;;5.50;;
20423;SDS011;10371;49.042;8.002;2023-02-21T02:59:54;5.90;;;5.30;;
20423;SDS011;10371;49.042;8.002;2023-02-21T03:01:04;6.40;;;4.93;;
20423;SDS011;10371;49.042;8.002;2023-02-21T03:02:26;5.60;;;4.90;;
20423;SDS011;10371;49.042;8.002;2023-02-21T03:03:41;6.90;;;4.83;;
20423;SDS011;10371;49.042;8.002;2023-02-21T03:04:53;8.50;;;4.70;;
20423;SDS011;10371;49.042;8.002;2023-02-21T03:09:14;5.23;;;4.63;;
20423;SDS011;10371;49.042;8.002;2023-02-21T03:10:24;5.67;;;5.00;;
20423;SDS011;10371;49.042;8.002;2023-02-21T03:11:32;5.60;;;5.10;;
20423;SDS011;10371;49.042;8.002;2023-02-21T03:13:53;5.17;;;4.67;;
20423;SDS011;10371;49.042;8.002;2023-02-21T03:15:21;6.50;;;5.50;;
20423;SDS011;10371;49.042;8.002;2023-02-21T03:16:30;8.10;;;5.23;;
20423;SDS011;10371;49.042;8.002;2023-02-21T03:17:37;6.10;;;4.60;;
20423;SDS011;10371;49.042;8.002;2023-02-21T03:18:42;6.70;;;5.30;;
20423;SDS011;10371;49.042;8.002;2023-02-21T03:19:48;5.83;;;5.23;;
20423;SDS011;10371;49.042;8.002;2023-02-21T03:20:56;5.20;;;4.70;;
20423;SDS011;10371;49.042;8.002;2023-02-21T03:21:59;7.30;;;5.10;;
20423;SDS011;10371;49.042;8.002;2023-02-21T03:23:04;6.70;;;5.40;;
20423;SDS011;10371;49.042;8.002;2023-02-21T03:24:06;6.53;;;4.77;;
20423;SDS011;10371;49.042;8.002;2023-02-21T03:25:09;5.43;;;4.87;;
20423;SDS011;10371;49.042;8.002;2023-02-21T03:26:10;5.10;;;4.40;;
20423;SDS011;10371;49.042;8.002;2023-02-21T03:27:14;6.67;;;5.17;;
20423;SDS011;10371;49.042;8.002;2023-02-21T03:28:16;6.57;;;5.10;;
20423;SDS011;10371;49.042;8.002;2023-02-21T03:29:17;6.40;;;5.40;;
20423;SDS011;10371;49.042;8.002;2023-02-21T03:30:18;6.00;;;5.40;;
20423;SDS011;10371;49.042;8.002;2023-02-21T03:31:20;7.03;;;5.30;;
20423;SDS011;10371;49.042;8.002;2023-02-21T03:32:26;7.03;;;5.47;;
20423;SDS011;10371;49.042;8.002;2023-02-21T03:33:31;5.97;;;5.10;;
20423;SDS011;10371;49.042;8.002;2023-02-21T03:34:32;7.57;;;5.27;;
20423;SDS011;10371;49.042;8.002;2023-02-21T03:35:33;6.17;;;5.17;;
20423;SDS011;10371;49.042;8.002;2023-02-21T03:36:33;6.13;;;5.07;;
20423;SDS011;10371;49.042;8.002;2023-02-21T03:37:37;6.30;;;5.07;;
20423;SDS011;10371;49.042;8.002;2023-02-21T03:38:39;5.53;;;5.03;;
20423;SDS011;10371;49.042;8.002;2023-02-21T03:39:40;6.03;;;5.17;;
20423;SDS011;10371;49.042;8.002;2023-02-21T03:40:40;5.83;;;5.17;;
20423;SDS011;10371;49.042;8.002;2023-02-21T03:41:40;6.47;;;4.97;;
20423;SDS011;10371;49.042;8.002;2023-02-21T03:42:41;6.03;;;5.30;;
20423;SDS011;10371;49.042;8.002;2023-02-21T03:43:41;6.57;;;5.47;;
20423;SDS011;10371;49.042;8.002;2023-02-21T03:44:41;5.77;;;5.27;;
20423;SDS011;10371;49.042;8.002;2023-02-21T03:45:42;5.90;;;5.30;;
20423;SDS011;10371;49.042;8.002;2023-02-21T03:46:42;7.20;;;5.53;;
20423;SDS011;10371;49.042;8.002;2023-02-21T03:47:42;7.20;;;5.57;;
20423;SDS011;10371;49.042;8.002;2023-02-21T03:48:42;6.60;;;5.50;;
20423;SDS011;10371;49.042;8.002;2023-02-21T03:49:43;6.30;;;5.40;;
20423;SDS011;10371;49.042;8.002;2023-02-21T03:50:43;6.43;;;4.80;;
20423;SDS011;10371;49.042;8.002;2023-02-21T03:51:44;7.40;;;5.70;;
20423;SDS011;10371;49.042;8.002;2023-02-21T03:52:44;6.27;;;5.27;;
20423;SDS011;10371;49.042;8.002;2023-02-21T03:53:45;6.67;;;5.13;;
20423;SDS011;10371;49.042;8.002;2023-02-21T03:54:45;6.67;;;5.50;;
20423;SDS011;10371;49.042;8.002;2023-02-21T03:55:45;6.67;;;6.03;;
20423;SDS011;10371;49.042;8.002;2023-02-21T03:56:45;6.10;;;5.50;;
20423;SDS011;10371;49.042;8.002;2023-02-21T03:57:46;7.43;;;5.63;;
20423;SDS011;10371;49.042;8.002;2023-02-21T03:58:46;7.40;;;5.13;;
20423;SDS011;10371;49.042;8.002;2023-02-21T03:59:46;8.03;;;5.63;;
20423;SDS011;10371;49.042;8.002;2023-02-21T04:00:47;6.40;;;5.30;;
20423;SDS011;10371;49.042;8.002;2023-02-21T04:01:47;5.50;;;5.00;;
20423;SDS011;10371;49.042;8.002;2023-02-21T04:02:47;6.70;;;5.27;;
20423;SDS011;10371;49.042;8.002;2023-02-21T04:03:48;5.47;;;4.97;;
20423;SDS011;10371;49.042;8.002;2023-02-21T04:04:49;7.03;;;5.73;;
20423;SDS011;10371;49.042;8.002;2023-02-21T04:05:49;6.20;;;5.57;;
20423;SDS011;10371;49.042;8.002;2023-02-21T04:06:50;6.63;;;5.40;;
20423;SDS011;10371;49.042;8.002;2023-02-21T04:07:50;7.80;;;5.87;;
20423;SDS011;10371;49.042;8.002;2023-02-21T04:08:50;7.00;;;5.77;;
20423;SDS011;10371;49.042;8.002;2023-02-21T04:09:50;6.27;;;5.43;;
20423;SDS011;10371;49.042;8.002;2023-02-21T04:10:51;8.10;;;5.93;;
20423;SDS011;10371;49.042;8.002;2023-02-21T04:11:51;5.93;;;5.40;;
20423;SDS011;10371;49.042;8.002;2023-02-21T04:12:51;7.40;;;5.53;;
20423;SDS011;10371;49.042;8.002;2023-02-21T04:13:52;7.83;;;5.27;;
20423;SDS011;10371;49.042;8.002;2023-02-21T04:14:52;8.03;;;5.87;;
20423;SDS011;10371;49.042;8.002;2023-02-21T04:15:55;6.33;;;5.47;;
20423;SDS011;10371;49.042;8.002;2023-02-21T04:16:55;6.03;;;5.43;;
20423;SDS011;10371;49.042;8.002;2023-02-21T04:17:55;7.80;;;5.53;;
20423;SDS011;10371;49.042;8.002;2023-02-21T04:18:56;8.43;;;5.97;;
20423;SDS011;10371;49.042;8.002;2023-02-21T04:19:57;6.70;;;5.83;;
20423;SDS011;10371;49.042;8.002;2023-02-21T04:20:57;11.17;;;6.23;;
20423;SDS011;10371;49.042;8.002;2023-02-21T04:21:58;8.53;;;6.63;;
20423;SDS011;10371;49.042;8.002;2023-02-21T04:22:58;8.03;;;6.30;;
20423;SDS011;10371;49.042;8.002;2023-02-21T04:23:58;7.13;;;6.27;;
20423;SDS011;10371;49.042;8.002;2023-02-21T04:24:59;8.00;;;6.50;;
20423;SDS011;10371;49.042;8.002;2023-02-21T04:25:59;7.60;;;6.30;;
20423;SDS011;10371;49.042;8.002;2023-02-21T04:26:59;7.20;;;6.00;;
20423;SDS011;10371;49.042;8.002;2023-02-21T04:28:01;8.00;;;5.73;;
20423;SDS011;10371;49.042;8.002;2023-02-21T04:29:01;6.50;;;5.87;;
20423;SDS011;10371;49.042;8.002;2023-02-21T04:30:02;7.97;;;6.50;;
20423;SDS011;10371;49.042;8.002;2023-02-21T04:31:02;7.10;;;6.10;;
20423;SDS011;10371;49.042;8.002;2023-02-21T04:32:03;7.90;;;6.43;;
20423;SDS011;10371;49.042;8.002;2023-02-21T04:33:03;6.00;;;5.50;;
20423;SDS011;10371;49.042;8.002;2023-02-21T04:34:04;7.10;;;5.60;;
20423;SDS011;10371;49.042;8.002;2023-02-21T04:35:04;8.33;;;7.53;;
20423;SDS011;10371;49.042;8.002;2023-02-21T04:36:05;14.97;;;10.97;;
20423;SDS011;10371;49.042;8.002;2023-02-21T04:37:05;10.80;;;7.43;;
20423;SDS011;10371;49.042;8.002;2023-02-21T04:38:05;7.47;;;6.67;;
20423;SDS011;10371;49.042;8.002;2023-02-21T04:39:06;8.73;;;7.00;;
20423;SDS011;10371;49.042;8.002;2023-02-21T04:40:07;7.60;;;6.80;;
20423;SDS011;10371;49.042;8.002;2023-02-21T04:41:07;8.77;;;7.10;;
20423;SDS011;10371;49.042;8.002;2023-02-21T04:42:08;10.27;;;7.07;;
20423;SDS011;10371;49.042;8.002;2023-02-21T04:43:08;7.70;;;6.57;;
20423;SDS011;10371;49.042;8.002;2023-02-21T04:44:08;9.40;;;6.53;;
20423;SDS011;10371;49.042;8.002;2023-02-21T04:45:09;7.90;;;6.63;;
20423;SDS011;10371;49.042;8.002;2023-02-21T04:46:13;7.13;;;6.17;;
20423;SDS011;10371;49.042;8.002;2023-02-21T04:47:15;7.23;;;6.03;;
20423;SDS011;10371;49.042;8.002;2023-02-21T04:48:15;8.23;;;6.23;;
20423;SDS011;10371;49.042;8.002;2023-02-21T04:49:16;8.87;;;6.60;;
20423;SDS011;10371;49.042;8.002;2023-02-21T04:50:17;9.40;;;6.77;;
20423;SDS011;10371;49.042;8.002;2023-02-21T04:51:19;10.33;;;7.20;;
20423;SDS011;10371;49.042;8.002;2023-02-21T04:52:21;8.27;;;6.50;;
20423;SDS011;10371;49.042;8.002;2023-02-21T04:53:22;6.83;;;6.13;;
20423;SDS011;10371;49.042;8.002;2023-02-21T04:54:22;10.33;;;6.93;;
20423;SDS011;10371;49.042;8.002;2023-02-21T04:55:23;7.97;;;6.47;;
20423;SDS011;10371;49.042;8.002;2023-02-21T04:56:24;7.40;;;6.60;;
20423;SDS011;10371;49.042;8.002;2023-02-21T04:57:26;10.07;;;6.70;;
20423;SDS011;10371;49.042;8.002;2023-02-21T04:58:26;8.73;;;7.10;;
20423;SDS011;10371;49.042;8.002;2023-02-21T04:59:27;9.43;;;7.23;;
20423;SDS011;10371;49.042;8.002;2023-02-21T05:00:27;11.03;;;7.73;;
20423;SDS011;10371;49.042;8.002;2023-02-21T05:01:27;9.17;;;7.67;;
20423;SDS011;10371;49.042;8.002;2023-02-21T05:02:30;8.67;;;7.30;;
20423;SDS011;10371;49.042;8.002;2023-02-21T05:03:30;10.10;;;7.67;;
20423;SDS011;10371;49.042;8.002;2023-02-21T05:04:30;10.03;;;8.30;;
20423;SDS011;10371;49.042;8.002;2023-02-21T05:05:31;9.63;;;7.70;;
20423;SDS011;10371;49.042;8.002;2023-02-21T05:06:31;10.03;;;7.63;;
20423;SDS011;10371;49.042;8.002;2023-02-21T05:07:31;9.70;;;7.43;;
20423;SDS011;10371;49.042;8.002;2023-02-21T05:08:32;8.50;;;7.10;;
20423;SDS011;10371;49.042;8.002;2023-02-21T05:09:32;7.60;;;6.90;;
20423;SDS011;10371;49.042;8.002;2023-02-21T05:10:32;7.87;;;6.90;;
20423;SDS011;10371;49.042;8.002;2023-02-21T05:11:33;8.33;;;7.43;;
20423;SDS011;10371;49.042;8.002;2023-02-21T05:12:34;8.70;;;7.07;;
20423;SDS011;10371;49.042;8.002;2023-02-21T05:13:36;7.80;;;6.97;;
20423;SDS011;10371;49.042;8.002;2023-02-21T05:14:37;8.43;;;7.13;;
20423;SDS011;10371;49.042;8.002;2023-02-21T05:15:38;9.07;;;7.28;;
20423;SDS011;10371;49.042;8.002;2023-02-21T05:16:38;9.07;;;6.37;;
20423;SDS011;10371;49.042;8.002;2023-02-21T05:17:38;8.67;;;7.23;;
20423;SDS011;10371;49.042;8.002;2023-02-21T05:18:42;14.53;;;7.77;;
20423;SDS011;10371;49.042;8.002;2023-02-21T05:19:45;9.13;;;6.70;;
20423;SDS011;10371;49.042;8.002;2023-02-21T05:20:45;8.33;;;7.30;;
20423;SDS011;10371;49.042;8.002;2023-02-21T05:21:46;10.30;;;8.50;;
20423;SDS011;10371;49.042;8.002;2023-02-21T05:22:46;9.93;;;8.17;;
20423;SDS011;10371;49.042;8.002;2023-02-21T05:23:47;10.03;;;7.93;;
20423;SDS011;10371;49.042;8.002;2023-02-21T05:24:56;8.30;;;7.47;;
20423;SDS011;10371;49.042;8.002;2023-02-21T05:25:57;8.87;;;7.77;;
20423;SDS011;10371;49.042;8.002;2023-02-21T05:26:57;9.47;;;7.93;;
20423;SDS011;10371;49.042;8.002;2023-02-21T05:27:58;9.13;;;7.80;;
20423;SDS011;10371;49.042;8.002;2023-02-21T05:28:58;10.10;;;8.10;;
20423;SDS011;10371;49.042;8.002;2023-02-21T05:29:59;9.33;;;8.23;;
20423;SDS011;10371;49.042;8.002;2023-02-21T05:30:59;10.07;;;7.37;;
20423;SDS011;10371;49.042;8.002;2023-02-21T05:31:59;9.57;;;8.00;;
20423;SDS011;10371;49.042;8.002;2023-02-21T05:33:00;9.23;;;7.73;;
20423;SDS011;10371;49.042;8.002;2023-02-21T05:34:00;10.67;;;7.93;;
20423;SDS011;10371;49.042;8.002;2023-02-21T05:35:00;8.30;;;7.50;;
20423;SDS011;10371;49.042;8.002;2023-02-21T05:36:00;9.67;;;7.80;;
20423;SDS011;10371;49.042;8.002;2023-02-21T05:37:01;11.63;;;7.80;;
20423;SDS011;10371;49.042;8.002;2023-02-21T05:38:01;10.20;;;8.00;;
20423;SDS011;10371;49.042;8.002;2023-02-21T05:39:02;10.40;;;7.50;;
20423;SDS011;10371;49.042;8.002;2023-02-21T05:40:03;10.23;;;7.87;;
20423;SDS011;10371;49.042;8.002;2023-02-21T05:41:05;8.90;;;8.00;;
20423;SDS011;10371;49.042;8.002;2023-02-21T05:42:05;8.50;;;7.53;;
20423;SDS011;10371;49.042;8.002;2023-02-21T05:43:06;9.43;;;7.30;;
20423;SDS011;10371;49.042;8.002;2023-02-21T05:44:07;7.70;;;7.00;;
20423;SDS011;10371;49.042;8.002;2023-02-21T05:45:07;8.10;;;7.30;;
20423;SDS011;10371;49.042;8.002;2023-02-21T05:46:15;9.57;;;7.07;;
20423;SDS011;10371;49.042;8.002;2023-02-21T05:47:17;9.20;;;7.70;;
20423;SDS011;10371;49.042;8.002;2023-02-21T05:48:17;7.80;;;7.03;;
20423;SDS011;10371;49.042;8.002;2023-02-21T05:49:18;8.13;;;7.27;;
20423;SDS011;10371;49.042;8.002;2023-02-21T05:50:18;10.00;;;8.00;;
20423;SDS011;10371;49.042;8.002;2023-02-21T05:51:18;8.30;;;7.50;;
20423;SDS011;10371;49.042;8.002;2023-02-21T05:52:19;8.57;;;7.43;;
20423;SDS011;10371;49.042;8.002;2023-02-21T05:53:19;8.57;;;7.20;;
20423;SDS011;10371;49.042;8.002;2023-02-21T05:54:20;7.70;;;6.90;;
20423;SDS011;10371;49.042;8.002;2023-02-21T05:55:20;10.60;;;9.37;;
20423;SDS011;10371;49.042;8.002;2023-02-21T05:56:21;9.87;;;8.87;;
20423;SDS011;10371;49.042;8.002;2023-02-21T05:57:21;8.83;;;7.93;;
20423;SDS011;10371;49.042;8.002;2023-02-21T05:58:21;9.83;;;8.13;;
20423;SDS011;10371;49.042;8.002;2023-02-21T05:59:22;9.23;;;7.70;;
20423;SDS011;10371;49.042;8.002;2023-02-21T06:00:24;9.17;;;8.27;;
20423;SDS011;10371;49.042;8.002;2023-02-21T06:01:27;9.07;;;8.17;;
20423;SDS011;10371;49.042;8.002;2023-02-21T06:02:27;8.70;;;7.70;;
20423;SDS011;10371;49.042;8.002;2023-02-21T06:03:27;9.17;;;7.47;;
20423;SDS011;10371;49.042;8.002;2023-02-21T06:04:27;7.67;;;6.97;;
20423;SDS011;10371;49.042;8.002;2023-02-21T06:05:28;8.03;;;7.00;;
20423;SDS011;10371;49.042;8.002;2023-02-21T06:06:28;10.80;;;7.47;;
20423;SDS011;10371;49.042;8.002;2023-02-21T06:07:28;11.27;;;7.43;;
20423;SDS011;10371;49.042;8.002;2023-02-21T06:08:28;8.73;;;7.47;;
20423;SDS011;10371;49.042;8.002;2023-02-21T06:09:29;8.63;;;7.47;;
20423;SDS011;10371;49.042;8.002;2023-02-21T06:10:30;11.40;;;8.00;;
20423;SDS011;10371;49.042;8.002;2023-02-21T06:11:31;9.17;;;7.87;;
20423;SDS011;10371;49.042;8.002;2023-02-21T06:12:32;10.10;;;7.80;;
20423;SDS011;10371;49.042;8.002;2023-02-21T06:13:32;7.37;;;6.67;;
20423;SDS011;10371;49.042;8.002;2023-02-21T06:14:33;9.53;;;7.77;;
20423;SDS011;10371;49.042;8.002;2023-02-21T06:15:33;8.03;;;7.10;;
20423;SDS011;10371;49.042;8.002;2023-02-21T06:16:34;9.60;;;7.20;;
20423;SDS011;10371;49.042;8.002;2023-02-21T06:17:38;9.57;;;7.30;;
20423;SDS011;10371;49.042;8.002;2023-02-21T06:18:39;8.17;;;7.30;;
20423;SDS011;10371;49.042;8.002;2023-02-21T06:19:40;7.60;;;6.63;;
20423;SDS011;10371;49.042;8.002;2023-02-21T06:20:40;10.10;;;7.50;;
20423;SDS011;10371;49.042;8.002;2023-02-21T06:21:40;7.83;;;6.87;;
20423;SDS011;10371;49.042;8.002;2023-02-21T06:22:42;7.80;;;6.73;;
20423;SDS011;10371;49.042;8.002;2023-02-21T06:23:42;7.67;;;6.87;;
20423;SDS011;10371;49.042;8.002;2023-02-21T06:24:43;7.80;;;6.90;;
20423;SDS011;10371;49.042;8.002;2023-02-21T06:25:43;9.53;;;7.50;;
20423;SDS011;10371;49.042;8.002;2023-02-21T06:26:43;9.33;;;6.90;;
20423;SDS011;10371;49.042;8.002;2023-02-21T06:27:43;7.87;;;6.93;;
20423;SDS011;10371;49.042;8.002;2023-02-21T06:28:44;8.80;;;7.67;;
20423;SDS011;10371;49.042;8.002;2023-02-21T06:29:44;7.57;;;6.87;;
20423;SDS011;10371;49.042;8.002;2023-02-21T06:30:44;8.47;;;7.03;;
20423;SDS011;10371;49.042;8.002;2023-02-21T06:31:45;8.93;;;7.50;;
20423;SDS011;10371;49.042;8.002;2023-02-21T06:32:45;8.20;;;7.40;;
20423;SDS011;10371;49.042;8.002;2023-02-21T06:33:46;8.73;;;7.83;;
20423;SDS011;10371;49.042;8.002;2023-02-21T06:34:46;8.73;;;7.83;;
20423;SDS011;10371;49.042;8.002;2023-02-21T06:35:47;7.30;;;6.60;;
20423;SDS011;10371;49.042;8.002;2023-02-21T06:36:50;8.53;;;7.67;;
20423;SDS011;10371;49.042;8.002;2023-02-21T06:37:51;8.70;;;7.80;;
20423;SDS011;10371;49.042;8.002;2023-02-21T06:38:52;9.20;;;7.97;;
20423;SDS011;10371;49.042;8.002;2023-02-21T06:39:54;12.00;;;9.40;;
20423;SDS011;10371;49.042;8.002;2023-02-21T06:40:55;12.10;;;8.53;;
20423;SDS011;10371;49.042;8.002;2023-02-21T06:41:55;10.63;;;8.20;;
20423;SDS011;10371;49.042;8.002;2023-02-21T06:42:55;9.00;;;8.10;;
20423;SDS011;10371;49.042;8.002;2023-02-21T06:43:56;8.83;;;8.00;;
20423;SDS011;10371;49.042;8.002;2023-02-21T06:44:57;9.10;;;8.03;;
20423;SDS011;10371;49.042;8.002;2023-02-21T06:45:57;9.47;;;8.40;;
20423;SDS011;10371;49.042;8.002;2023-02-21T06:46:58;10.97;;;8.67;;
20423;SDS011;10371;49.042;8.002;2023-02-21T06:47:58;10.77;;;8.70;;
20423;SDS011;10371;49.042;8.002;2023-02-21T06:48:58;10.47;;;8.17;;
20423;SDS011;10371;49.042;8.002;2023-02-21T06:49:58;12.60;;;8.97;;
20423;SDS011;10371;49.042;8.002;2023-02-21T06:50:59;10.70;;;9.00;;
20423;SDS011;10371;49.042;8.002;2023-02-21T06:51:59;9.80;;;8.63;;
20423;SDS011;10371;49.042;8.002;2023-02-21T06:52:59;8.87;;;7.90;;
20423;SDS011;10371;49.042;8.002;2023-02-21T06:53:59;10.20;;;8.00;;
20423;SDS011;10371;49.042;8.002;2023-02-21T06:55:00;10.03;;;8.70;;
20423;SDS011;10371;49.042;8.002;2023-02-21T06:56:00;10.90;;;8.37;;
20423;SDS011;10371;49.042;8.002;2023-02-21T06:57:00;9.47;;;7.63;;
20423;SDS011;10371;49.042;8.002;2023-02-21T06:58:01;10.53;;;7.83;;
20423;SDS011;10371;49.042;8.002;2023-02-21T06:59:01;8.07;;;7.27;;
20423;SDS011;10371;49.042;8.002;2023-02-21T07:00:03;9.07;;;7.90;;
20423;SDS011;10371;49.042;8.002;2023-02-21T07:01:04;8.77;;;7.87;;
20423;SDS011;10371;49.042;8.002;2023-02-21T07:02:04;10.97;;;8.80;;
20423;SDS011;10371;49.042;8.002;2023-02-21T07:03:04;10.50;;;8.03;;
20423;SDS011;10371;49.042;8.002;2023-02-21T07:04:05;10.13;;;8.23;;
20423;SDS011;10371;49.042;8.002;2023-02-21T07:05:05;9.70;;;8.63;;
20423;SDS011;10371;49.042;8.002;2023-02-21T07:06:06;10.03;;;9.00;;
20423;SDS011;10371;49.042;8.002;2023-02-21T07:07:06;10.10;;;9.10;;
20423;SDS011;10371;49.042;8.002;2023-02-21T07:08:06;10.63;;;8.73;;
20423;SDS011;10371;49.042;8.002;2023-02-21T07:09:07;10.57;;;8.60;;
20423;SDS011;10371;49.042;8.002;2023-02-21T07:10:07;9.43;;;8.43;;
20423;SDS011;10371;49.042;8.002;2023-02-21T07:11:08;9.13;;;7.93;;
20423;SDS011;10371;49.042;8.002;2023-02-21T07:12:09;9.17;;;7.83;;